UAE4V OOMS-OMDB
Flight info
| Callsign | UAE4V |
|---|---|
| Flight time | N/A |
| Altitude | 20000 |
| Route | ITLAK DCT MIXAM T508 SOLUD P574 IMPED |
| Aircraft | A359/H-SDE2E3GHIJ3J4J5LM1ORWXY/LB1D1 |
Departure
| Time | 2026-05-01 12:41 |
|---|---|
| Airport | Muscat International Airport (OOMS) |
Arrival
| Time | N/A |
|---|---|
| Airport | Dubai International Airport (OMDB) |
| Time | Latitude | Longitude | Altitude | Speed | Heading |
|---|---|---|---|---|---|
| 2026-05-01 11:58 | 23.60166 | 58.28249 | 51 ft | 0 kts | 175° |
| 2026-05-01 12:28 | 23.60181 | 58.28248 | 46 ft | 3 kts | 175° |
| 2026-05-01 12:29 | 23.60201 | 58.28246 | 47 ft | 3 kts | 175° |
| 2026-05-01 12:29 | 23.60221 | 58.28245 | 45 ft | 3 kts | 175° |
| 2026-05-01 12:29 | 23.60251 | 58.28233 | 46 ft | 3 kts | 111° |
| 2026-05-01 12:30 | 23.60252 | 58.28191 | 49 ft | 3 kts | 82° |
| 2026-05-01 12:30 | 23.60251 | 58.28176 | 49 ft | 1 kts | 85° |
| 2026-05-01 12:30 | 23.60251 | 58.28175 | 49 ft | 0 kts | 85° |
| 2026-05-01 12:35 | 23.60252 | 58.28193 | 51 ft | 6 kts | 85° |
| 2026-05-01 12:35 | 23.60257 | 58.28265 | 51 ft | 13 kts | 85° |
| 2026-05-01 12:35 | 23.60266 | 58.28374 | 51 ft | 16 kts | 85° |
| 2026-05-01 12:35 | 23.60298 | 58.28455 | 46 ft | 10 kts | 12° |
| 2026-05-01 12:36 | 23.60373 | 58.28448 | 48 ft | 12 kts | 355° |
| 2026-05-01 12:36 | 23.60466 | 58.28440 | 50 ft | 15 kts | 355° |
| 2026-05-01 12:36 | 23.60577 | 58.28429 | 48 ft | 17 kts | 355° |
| 2026-05-01 12:36 | 23.60623 | 58.28441 | 46 ft | 2 kts | 63° |
| 2026-05-01 12:37 | 23.60630 | 58.28467 | 45 ft | 5 kts | 76° |
| 2026-05-01 12:37 | 23.60636 | 58.28516 | 48 ft | 8 kts | 83° |
| 2026-05-01 12:37 | 23.60643 | 58.28585 | 52 ft | 11 kts | 85° |
| 2026-05-01 12:37 | 23.60613 | 58.28654 | 50 ft | 12 kts | 161° |
| 2026-05-01 12:38 | 23.60562 | 58.28694 | 46 ft | 8 kts | 105° |
| 2026-05-01 12:38 | 23.60568 | 58.28761 | 48 ft | 10 kts | 84° |
| 2026-05-01 12:38 | 23.60576 | 58.28849 | 46 ft | 14 kts | 85° |
| 2026-05-01 12:38 | 23.60587 | 58.28973 | 47 ft | 18 kts | 84° |
| 2026-05-01 12:39 | 23.60598 | 58.29125 | 51 ft | 22 kts | 85° |
| 2026-05-01 12:39 | 23.60613 | 58.29303 | 51 ft | 25 kts | 85° |
| 2026-05-01 12:39 | 23.60628 | 58.29491 | 47 ft | 27 kts | 85° |
| 2026-05-01 12:39 | 23.60663 | 58.29611 | 47 ft | 9 kts | 12° |
| 2026-05-01 12:40 | 23.60736 | 58.29604 | 46 ft | 12 kts | 355° |
| 2026-05-01 12:40 | 23.60834 | 58.29596 | 46 ft | 16 kts | 355° |
| 2026-05-01 12:40 | 23.60894 | 58.29578 | 48 ft | 3 kts | 302° |
| 2026-05-01 12:40 | 23.60894 | 58.29549 | 49 ft | 9 kts | 264° |
| 2026-05-01 12:41 | 23.60877 | 58.29342 | 46 ft | 62 kts | 265° |
| 2026-05-01 12:41 | 23.60818 | 58.28588 | 46 ft | 135 kts | 265° |
| 2026-05-01 12:41 | 23.60716 | 58.27338 | 125 ft | 189 kts | 268° |
| 2026-05-01 12:41 | 23.60623 | 58.25961 | 1062 ft | 174 kts | 269° |
| 2026-05-01 12:42 | 23.60549 | 58.24706 | 1931 ft | 158 kts | 271° |
| 2026-05-01 12:42 | 23.60479 | 58.23579 | 2575 ft | 140 kts | 269° |
| 2026-05-01 12:42 | 23.60400 | 58.22470 | 2783 ft | 156 kts | 268° |
| 2026-05-01 12:42 | 23.60307 | 58.21211 | 2944 ft | 178 kts | 267° |
| 2026-05-01 12:43 | 23.60185 | 58.19797 | 3168 ft | 197 kts | 266° |
| 2026-05-01 12:43 | 23.60034 | 58.18238 | 3403 ft | 216 kts | 265° |
| 2026-05-01 12:43 | 23.59883 | 58.16575 | 3724 ft | 231 kts | 266° |
| 2026-05-01 12:43 | 23.59740 | 58.14780 | 4118 ft | 244 kts | 266° |
| 2026-05-01 12:44 | 23.59607 | 58.12871 | 4451 ft | 261 kts | 267° |
| 2026-05-01 12:44 | 23.59458 | 58.10850 | 4909 ft | 271 kts | 266° |
| 2026-05-01 12:44 | 23.59133 | 58.06868 | 6512 ft | 260 kts | 265° |
| 2026-05-01 12:45 | 23.59776 | 58.02986 | 7464 ft | 274 kts | 302° |
| 2026-05-01 12:45 | 23.60968 | 58.01397 | 8065 ft | 276 kts | 311° |
| 2026-05-01 12:45 | 23.62357 | 57.99934 | 8630 ft | 281 kts | 314° |
| 2026-05-01 12:46 | 23.63828 | 57.98498 | 9177 ft | 284 kts | 315° |
| 2026-05-01 12:46 | 23.65303 | 57.97047 | 9746 ft | 287 kts | 314° |
| 2026-05-01 12:46 | 23.66767 | 57.95563 | 10318 ft | 287 kts | 313° |
| 2026-05-01 12:46 | 23.68217 | 57.94006 | 10625 ft | 299 kts | 310° |
| 2026-05-01 12:47 | 23.69626 | 57.92292 | 10946 ft | 308 kts | 306° |
| 2026-05-01 12:47 | 23.70973 | 57.90420 | 11226 ft | 319 kts | 304° |
| 2026-05-01 12:47 | 23.72335 | 57.88453 | 11481 ft | 330 kts | 304° |
| 2026-05-01 12:47 | 23.73736 | 57.86427 | 11781 ft | 339 kts | 304° |
| 2026-05-01 12:48 | 23.75161 | 57.84392 | 12181 ft | 344 kts | 305° |
| 2026-05-01 12:48 | 23.76635 | 57.82316 | 12614 ft | 348 kts | 305° |
| 2026-05-01 12:48 | 23.78134 | 57.80224 | 13068 ft | 351 kts | 305° |
| 2026-05-01 12:48 | 23.79649 | 57.78119 | 13496 ft | 355 kts | 305° |
| 2026-05-01 12:49 | 23.81180 | 57.75999 | 13898 ft | 357 kts | 305° |
| 2026-05-01 12:49 | 23.82725 | 57.73859 | 14343 ft | 358 kts | 305° |
| 2026-05-01 12:49 | 23.84268 | 57.71723 | 14791 ft | 359 kts | 305° |
| 2026-05-01 12:49 | 23.85816 | 57.69577 | 15253 ft | 360 kts | 305° |
| 2026-05-01 12:50 | 23.87366 | 57.67425 | 15689 ft | 361 kts | 305° |
| 2026-05-01 12:50 | 23.88900 | 57.65291 | 16116 ft | 363 kts | 304° |
| 2026-05-01 12:50 | 23.90464 | 57.63115 | 16536 ft | 365 kts | 304° |
| 2026-05-01 12:50 | 23.92038 | 57.60923 | 16944 ft | 367 kts | 304° |
| 2026-05-01 12:51 | 23.93619 | 57.58721 | 17356 ft | 369 kts | 304° |
| 2026-05-01 12:51 | 23.95207 | 57.56508 | 17758 ft | 371 kts | 304° |
| 2026-05-01 12:51 | 23.98403 | 57.52053 | 18573 ft | 373 kts | 304° |
| 2026-05-01 12:52 | 23.99987 | 57.49845 | 18918 ft | 375 kts | 304° |
| 2026-05-01 12:52 | 24.03218 | 57.45329 | 19603 ft | 379 kts | 304° |
| 2026-05-01 12:52 | 24.04844 | 57.43057 | 19762 ft | 378 kts | 304° |
| 2026-05-01 12:53 | 24.08057 | 57.38575 | 19789 ft | 373 kts | 303° |
| 2026-05-01 12:53 | 24.09659 | 57.36335 | 19788 ft | 373 kts | 303° |
| 2026-05-01 12:53 | 24.11257 | 57.34098 | 19784 ft | 374 kts | 303° |
| 2026-05-01 12:54 | 24.12857 | 57.31856 | 19786 ft | 374 kts | 303° |
| 2026-05-01 12:54 | 24.16040 | 57.27394 | 19788 ft | 374 kts | 303° |
| 2026-05-01 12:54 | 24.17640 | 57.25150 | 19786 ft | 373 kts | 303° |
| 2026-05-01 12:55 | 24.20827 | 57.20679 | 19784 ft | 372 kts | 303° |
| 2026-05-01 12:55 | 24.22422 | 57.18439 | 19783 ft | 372 kts | 303° |
| 2026-05-01 12:55 | 24.24012 | 57.16206 | 19788 ft | 372 kts | 303° |
| 2026-05-01 12:56 | 24.25604 | 57.13968 | 19792 ft | 372 kts | 303° |
| 2026-05-01 12:56 | 24.27195 | 57.11732 | 19789 ft | 372 kts | 303° |
| 2026-05-01 12:56 | 24.28767 | 57.09521 | 19790 ft | 373 kts | 303° |
| 2026-05-01 12:56 | 24.30358 | 57.07281 | 19789 ft | 373 kts | 303° |
| 2026-05-01 12:57 | 24.31954 | 57.05033 | 19800 ft | 373 kts | 303° |
| 2026-05-01 12:57 | 24.35144 | 57.00539 | 19788 ft | 374 kts | 303° |
| 2026-05-01 12:57 | 24.36742 | 56.98286 | 19789 ft | 374 kts | 303° |
| 2026-05-01 12:58 | 24.38338 | 56.96035 | 19783 ft | 374 kts | 303° |
| 2026-05-01 12:58 | 24.39929 | 56.93791 | 19783 ft | 374 kts | 303° |
| 2026-05-01 12:58 | 24.41528 | 56.91533 | 19776 ft | 374 kts | 303° |
| 2026-05-01 12:59 | 24.44712 | 56.87034 | 19770 ft | 374 kts | 303° |
| 2026-05-01 12:59 | 24.46307 | 56.84780 | 19772 ft | 374 kts | 303° |
| 2026-05-01 12:59 | 24.49470 | 56.80305 | 19766 ft | 373 kts | 303° |
| 2026-05-01 13:00 | 24.52643 | 56.75808 | 19770 ft | 373 kts | 303° |
| 2026-05-01 13:00 | 24.54233 | 56.73554 | 19765 ft | 373 kts | 303° |
| 2026-05-01 13:01 | 24.57413 | 56.69059 | 19770 ft | 373 kts | 303° |
| 2026-05-01 13:01 | 24.59007 | 56.66807 | 19769 ft | 372 kts | 303° |
| 2026-05-01 13:01 | 24.62190 | 56.62298 | 19769 ft | 385 kts | 303° |
| 2026-05-01 13:02 | 24.63863 | 56.59921 | 19619 ft | 390 kts | 303° |
| 2026-05-01 13:07 | 24.93525 | 56.12814 | 10758 ft | 296 kts | 289° |
| 2026-05-01 13:07 | 24.94243 | 56.10743 | 10662 ft | 282 kts | 288° |
| 2026-05-01 13:07 | 24.94924 | 56.08775 | 10536 ft | 269 kts | 288° |
| 2026-05-01 13:08 | 24.95573 | 56.06886 | 10393 ft | 258 kts | 288° |
| 2026-05-01 13:08 | 24.96198 | 56.05051 | 10216 ft | 255 kts | 288° |
| 2026-05-01 13:08 | 24.96818 | 56.03225 | 9938 ft | 254 kts | 288° |
| 2026-05-01 13:08 | 24.97453 | 56.01353 | 9754 ft | 268 kts | 288° |
| 2026-05-01 13:09 | 24.98111 | 55.99411 | 9635 ft | 269 kts | 288° |
| 2026-05-01 13:09 | 24.98764 | 55.97485 | 9128 ft | 270 kts | 288° |
| 2026-05-01 13:09 | 24.99421 | 55.95541 | 8722 ft | 270 kts | 289° |
| 2026-05-01 13:09 | 25.00065 | 55.93636 | 8391 ft | 270 kts | 289° |
| 2026-05-01 13:10 | 25.00724 | 55.91691 | 8073 ft | 270 kts | 289° |
| 2026-05-01 13:10 | 25.01380 | 55.89753 | 7758 ft | 269 kts | 289° |
| 2026-05-01 13:10 | 25.02030 | 55.87825 | 7473 ft | 268 kts | 290° |
| 2026-05-01 13:10 | 25.02678 | 55.85903 | 7163 ft | 267 kts | 290° |
| 2026-05-01 13:11 | 25.03324 | 55.83994 | 6861 ft | 265 kts | 291° |
| 2026-05-01 13:11 | 25.03966 | 55.82094 | 6555 ft | 265 kts | 291° |
| 2026-05-01 13:11 | 25.04609 | 55.80190 | 6247 ft | 264 kts | 291° |
| 2026-05-01 13:11 | 25.05240 | 55.78319 | 5935 ft | 264 kts | 291° |
| 2026-05-01 13:12 | 25.05881 | 55.76419 | 5611 ft | 265 kts | 291° |
| 2026-05-01 13:12 | 25.06518 | 55.74527 | 5357 ft | 261 kts | 291° |
| 2026-05-01 13:12 | 25.07135 | 55.72694 | 5217 ft | 248 kts | 292° |
| 2026-05-01 13:12 | 25.07722 | 55.70950 | 5085 ft | 237 kts | 292° |
| 2026-05-01 13:13 | 25.08283 | 55.69279 | 4960 ft | 227 kts | 292° |
| 2026-05-01 13:13 | 25.08817 | 55.67682 | 4837 ft | 217 kts | 292° |
| 2026-05-01 13:13 | 25.09326 | 55.66163 | 4705 ft | 207 kts | 293° |
| 2026-05-01 13:13 | 25.09822 | 55.64711 | 4586 ft | 197 kts | 295° |
| 2026-05-01 13:14 | 25.10447 | 55.63434 | 4434 ft | 187 kts | 303° |
| 2026-05-01 13:14 | 25.11115 | 55.62204 | 4278 ft | 187 kts | 302° |
| 2026-05-01 13:14 | 25.11764 | 55.60962 | 4066 ft | 187 kts | 302° |
| 2026-05-01 13:14 | 25.12424 | 55.59728 | 3839 ft | 187 kts | 303° |
| 2026-05-01 13:15 | 25.13109 | 55.58504 | 3619 ft | 188 kts | 303° |
| 2026-05-01 13:15 | 25.13797 | 55.57275 | 3405 ft | 188 kts | 302° |
| 2026-05-01 13:15 | 25.14470 | 55.56046 | 3201 ft | 186 kts | 302° |
| 2026-05-01 13:15 | 25.15130 | 55.54810 | 3019 ft | 188 kts | 301° |
| 2026-05-01 13:16 | 25.15798 | 55.53568 | 2777 ft | 188 kts | 302° |
| 2026-05-01 13:16 | 25.16477 | 55.52348 | 2546 ft | 186 kts | 302° |
| 2026-05-01 13:16 | 25.17152 | 55.51134 | 2331 ft | 182 kts | 302° |
| 2026-05-01 13:17 | 25.19039 | 55.47719 | 1642 ft | 160 kts | 301° |
| 2026-05-01 13:17 | 25.19594 | 55.46712 | 1441 ft | 151 kts | 301° |
| 2026-05-01 13:18 | 25.20615 | 55.44866 | 1086 ft | 133 kts | 302° |
| 2026-05-01 13:18 | 25.21100 | 55.44009 | 961 ft | 134 kts | 301° |
| 2026-05-01 13:18 | 25.21581 | 55.43145 | 798 ft | 131 kts | 302° |
| 2026-05-01 13:18 | 25.22061 | 55.42276 | 656 ft | 134 kts | 301° |
| 2026-05-01 13:19 | 25.22536 | 55.41400 | 463 ft | 132 kts | 302° |
| 2026-05-01 13:19 | 25.23010 | 55.40544 | 298 ft | 131 kts | 301° |
| 2026-05-01 13:19 | 25.23760 | 55.39160 | 60 ft | 129 kts | 300° |
| 2026-05-01 13:20 | 25.24000 | 55.38731 | 87 ft | 124 kts | 307° |
| 2026-05-01 13:20 | 25.24472 | 55.38011 | 421 ft | 126 kts | 303° |
| 2026-05-01 13:20 | 25.24979 | 55.37081 | 1004 ft | 157 kts | 300° |
| 2026-05-01 13:21 | 25.26133 | 55.34849 | 2390 ft | 171 kts | 300° |
| 2026-05-01 13:21 | 25.26722 | 55.33616 | 2837 ft | 192 kts | 293° |
| 2026-05-01 13:21 | 25.27177 | 55.32090 | 3059 ft | 224 kts | 288° |
| 2026-05-01 13:21 | 25.27345 | 55.30331 | 3243 ft | 240 kts | 266° |
| 2026-05-01 13:22 | 25.26730 | 55.28634 | 3428 ft | 247 kts | 237° |
| 2026-05-01 13:22 | 25.25445 | 55.27386 | 3620 ft | 254 kts | 217° |
| 2026-05-01 13:22 | 25.23893 | 55.26400 | 3605 ft | 253 kts | 213° |
| 2026-05-01 13:22 | 25.22284 | 55.25563 | 3198 ft | 262 kts | 201° |
| 2026-05-01 13:23 | 25.20453 | 55.25389 | 3031 ft | 278 kts | 173° |
| 2026-05-01 13:23 | 25.18643 | 55.26169 | 3010 ft | 285 kts | 146° |
| 2026-05-01 13:23 | 25.17257 | 55.27723 | 3010 ft | 286 kts | 124° |
| 2026-05-01 13:23 | 25.16231 | 55.29595 | 2999 ft | 284 kts | 118° |
| 2026-05-01 13:24 | 25.15326 | 55.31513 | 2994 ft | 284 kts | 114° |
| 2026-05-01 13:24 | 25.14525 | 55.33493 | 2992 ft | 284 kts | 112° |
| 2026-05-01 13:24 | 25.13735 | 55.35494 | 2993 ft | 283 kts | 112° |
| 2026-05-01 13:25 | 25.12334 | 55.39079 | 2994 ft | 284 kts | 112° |
| 2026-05-01 13:25 | 25.11989 | 55.39962 | 2987 ft | 285 kts | 112° |
| 2026-05-01 13:25 | 25.11904 | 55.40177 | 2986 ft | 284 kts | 112° |
| 2026-05-01 13:25 | 25.11123 | 55.42144 | 2999 ft | 284 kts | 112° |
| 2026-05-01 13:26 | 25.10326 | 55.44151 | 2991 ft | 283 kts | 112° |
| 2026-05-01 13:26 | 25.09553 | 55.46124 | 2999 ft | 283 kts | 111° |
| 2026-05-01 13:26 | 25.08972 | 55.48199 | 2992 ft | 281 kts | 96° |
| 2026-05-01 13:26 | 25.09111 | 55.50278 | 2992 ft | 276 kts | 70° |
| 2026-05-01 13:27 | 25.10045 | 55.52148 | 2610 ft | 280 kts | 46° |
| 2026-05-01 13:27 | 25.11524 | 55.53518 | 2195 ft | 276 kts | 29° |
| 2026-05-01 13:27 | 25.14980 | 55.53871 | 1982 ft | 235 kts | 337° |
| 2026-05-01 13:28 | 25.17147 | 55.51888 | 1971 ft | 188 kts | 300° |
| 2026-05-01 13:28 | 25.17761 | 55.50628 | 1987 ft | 184 kts | 298° |
| 2026-05-01 13:29 | 25.18946 | 55.48076 | 1724 ft | 190 kts | 297° |
| 2026-05-01 13:29 | 25.20190 | 55.45612 | 1235 ft | 171 kts | 303° |
| 2026-05-01 13:30 | 25.22375 | 55.41686 | 528 ft | 134 kts | 302° |
| 2026-05-01 13:31 | 25.23292 | 55.40028 | 215 ft | 121 kts | 302° |
| 2026-05-01 13:31 | 25.23836 | 55.39023 | 32 ft | 124 kts | 301° |
| 2026-05-01 13:32 | 25.24212 | 55.38444 | 31 ft | 101 kts | 301° |